Levittown, New York
Current Conditions -  °F | °C
As of 1:53 AM on Friday 28 Nov 2014 (Local Time) from KFRG Reporting Station
Clear Clear  
Wind Chill: 28°   Ceiling: Unl
Heat Index: 33°   Visibility: 10mi
Dew Point: 27°   Wind: 6mph
Humidity: 78%   Direction: 310°NW
Pressure: 30.05"   Gusts: NA
Location:  40.73°N, 73.51°W
Report Text: KFRG 280653Z AUTO 31005KT 10SM CLR 01/M03 A3005 RMK AO2 SLP177 T00061028
Loading
Personal Weather Stations






























Interactive Weather Map New forecast layout! Learn more

10-Day Weather Forecast

Advertisements
Track Severe Weather on mobile